sensor_id;sensor_type;location;lat;lon;timestamp;P1;durP1;ratioP1;P2;durP2;ratioP2
76846;SDS011;65813;49.546;8.644;2023-05-21T00:02:38;14.43;;;9.67;;
76846;SDS011;65813;49.546;8.644;2023-05-21T00:06:38;15.20;;;9.10;;
76846;SDS011;65813;49.546;8.644;2023-05-21T00:10:39;14.40;;;9.57;;
76846;SDS011;65813;49.546;8.644;2023-05-21T00:14:39;14.55;;;10.05;;
76846;SDS011;65813;49.546;8.644;2023-05-21T00:18:40;16.37;;;11.03;;
76846;SDS011;65813;49.546;8.644;2023-05-21T00:22:40;13.50;;;9.73;;
76846;SDS011;65813;49.546;8.644;2023-05-21T00:26:43;17.00;;;10.02;;
76846;SDS011;65813;49.546;8.644;2023-05-21T00:30:44;14.98;;;9.88;;
76846;SDS011;65813;49.546;8.644;2023-05-21T00:34:44;15.32;;;10.32;;
76846;SDS011;65813;49.546;8.644;2023-05-21T00:38:45;16.13;;;10.70;;
76846;SDS011;65813;49.546;8.644;2023-05-21T00:42:45;15.03;;;10.17;;
76846;SDS011;65813;49.546;8.644;2023-05-21T00:46:46;15.48;;;10.30;;
76846;SDS011;65813;49.546;8.644;2023-05-21T00:50:47;14.77;;;9.82;;
76846;SDS011;65813;49.546;8.644;2023-05-21T00:54:50;22.45;;;10.38;;
76846;SDS011;65813;49.546;8.644;2023-05-21T00:58:51;17.38;;;10.15;;
76846;SDS011;65813;49.546;8.644;2023-05-21T01:02:52;16.83;;;10.48;;
76846;SDS011;65813;49.546;8.644;2023-05-21T01:06:53;17.87;;;11.50;;
76846;SDS011;65813;49.546;8.644;2023-05-21T01:10:55;16.15;;;10.55;;
76846;SDS011;65813;49.546;8.644;2023-05-21T01:14:58;15.52;;;9.98;;
76846;SDS011;65813;49.546;8.644;2023-05-21T01:19:00;17.27;;;10.95;;
76846;SDS011;65813;49.546;8.644;2023-05-21T01:23:02;17.42;;;11.05;;
76846;SDS011;65813;49.546;8.644;2023-05-21T01:27:03;17.20;;;10.48;;
76846;SDS011;65813;49.546;8.644;2023-05-21T01:31:11;16.10;;;10.65;;
76846;SDS011;65813;49.546;8.644;2023-05-21T01:35:25;13.82;;;9.70;;
76846;SDS011;65813;49.546;8.644;2023-05-21T01:39:40;13.70;;;9.57;;
76846;SDS011;65813;49.546;8.644;2023-05-21T01:43:44;17.85;;;10.18;;
76846;SDS011;65813;49.546;8.644;2023-05-21T01:47:46;14.45;;;9.52;;
76846;SDS011;65813;49.546;8.644;2023-05-21T01:51:49;15.45;;;10.05;;
76846;SDS011;65813;49.546;8.644;2023-05-21T01:55:50;16.20;;;10.10;;
76846;SDS011;65813;49.546;8.644;2023-05-21T01:59:51;15.73;;;10.38;;
76846;SDS011;65813;49.546;8.644;2023-05-21T02:03:52;16.92;;;10.48;;
76846;SDS011;65813;49.546;8.644;2023-05-21T02:07:52;20.13;;;10.73;;
76846;SDS011;65813;49.546;8.644;2023-05-21T02:11:54;15.55;;;10.40;;
76846;SDS011;65813;49.546;8.644;2023-05-21T02:15:54;16.80;;;10.80;;
76846;SDS011;65813;49.546;8.644;2023-05-21T02:19:55;15.30;;;9.73;;
76846;SDS011;65813;49.546;8.644;2023-05-21T02:23:55;16.35;;;9.70;;
76846;SDS011;65813;49.546;8.644;2023-05-21T02:27:56;13.98;;;9.63;;
76846;SDS011;65813;49.546;8.644;2023-05-21T02:31:56;15.63;;;10.30;;
76846;SDS011;65813;49.546;8.644;2023-05-21T02:35:56;17.08;;;10.32;;
76846;SDS011;65813;49.546;8.644;2023-05-21T02:39:57;18.52;;;11.45;;
76846;SDS011;65813;49.546;8.644;2023-05-21T02:43:57;17.33;;;10.50;;
76846;SDS011;65813;49.546;8.644;2023-05-21T02:47:57;15.33;;;10.33;;
76846;SDS011;65813;49.546;8.644;2023-05-21T02:51:58;17.13;;;10.30;;
76846;SDS011;65813;49.546;8.644;2023-05-21T02:56:01;18.30;;;10.57;;
76846;SDS011;65813;49.546;8.644;2023-05-21T03:00:01;16.53;;;10.97;;
76846;SDS011;65813;49.546;8.644;2023-05-21T03:04:03;14.52;;;9.40;;
76846;SDS011;65813;49.546;8.644;2023-05-21T03:08:04;15.57;;;10.10;;
76846;SDS011;65813;49.546;8.644;2023-05-21T03:12:04;17.13;;;10.37;;
76846;SDS011;65813;49.546;8.644;2023-05-21T03:16:05;15.93;;;10.38;;
76846;SDS011;65813;49.546;8.644;2023-05-21T03:20:05;15.85;;;9.75;;
76846;SDS011;65813;49.546;8.644;2023-05-21T03:24:07;16.30;;;9.93;;
76846;SDS011;65813;49.546;8.644;2023-05-21T03:28:08;14.70;;;9.65;;
76846;SDS011;65813;49.546;8.644;2023-05-21T03:32:09;15.03;;;8.70;;
76846;SDS011;65813;49.546;8.644;2023-05-21T03:36:09;16.85;;;9.98;;
76846;SDS011;65813;49.546;8.644;2023-05-21T03:40:10;16.37;;;9.87;;
76846;SDS011;65813;49.546;8.644;2023-05-21T03:44:11;16.52;;;10.93;;
76846;SDS011;65813;49.546;8.644;2023-05-21T03:48:11;15.97;;;9.63;;
76846;SDS011;65813;49.546;8.644;2023-05-21T03:52:11;15.00;;;9.63;;
76846;SDS011;65813;49.546;8.644;2023-05-21T03:56:11;17.30;;;10.10;;
76846;SDS011;65813;49.546;8.644;2023-05-21T04:00:12;15.73;;;10.10;;
76846;SDS011;65813;49.546;8.644;2023-05-21T04:04:12;15.93;;;9.55;;
76846;SDS011;65813;49.546;8.644;2023-05-21T04:08:13;14.90;;;10.00;;
76846;SDS011;65813;49.546;8.644;2023-05-21T04:12:13;16.17;;;10.13;;
76846;SDS011;65813;49.546;8.644;2023-05-21T04:16:13;16.43;;;9.60;;
76846;SDS011;65813;49.546;8.644;2023-05-21T04:20:17;14.57;;;9.70;;
76846;SDS011;65813;49.546;8.644;2023-05-21T04:24:18;16.30;;;10.03;;
76846;SDS011;65813;49.546;8.644;2023-05-21T04:28:18;16.20;;;9.80;;
76846;SDS011;65813;49.546;8.644;2023-05-21T04:32:19;16.35;;;9.65;;
76846;SDS011;65813;49.546;8.644;2023-05-21T04:36:19;16.50;;;9.63;;
76846;SDS011;65813;49.546;8.644;2023-05-21T04:40:19;16.67;;;10.13;;
76846;SDS011;65813;49.546;8.644;2023-05-21T04:44:23;15.38;;;9.77;;
76846;SDS011;65813;49.546;8.644;2023-05-21T04:48:24;13.65;;;9.05;;
76846;SDS011;65813;49.546;8.644;2023-05-21T04:52:25;16.33;;;9.45;;
76846;SDS011;65813;49.546;8.644;2023-05-21T04:56:26;17.98;;;10.00;;
76846;SDS011;65813;49.546;8.644;2023-05-21T05:00:26;16.90;;;10.07;;
76846;SDS011;65813;49.546;8.644;2023-05-21T05:04:26;15.80;;;9.70;;
76846;SDS011;65813;49.546;8.644;2023-05-21T05:08:27;17.80;;;10.27;;
76846;SDS011;65813;49.546;8.644;2023-05-21T05:12:27;16.73;;;10.23;;
76846;SDS011;65813;49.546;8.644;2023-05-21T05:16:27;17.80;;;10.83;;
76846;SDS011;65813;49.546;8.644;2023-05-21T05:20:28;17.02;;;10.15;;
76846;SDS011;65813;49.546;8.644;2023-05-21T05:24:28;14.87;;;9.10;;
76846;SDS011;65813;49.546;8.644;2023-05-21T05:28:29;17.52;;;9.93;;
76846;SDS011;65813;49.546;8.644;2023-05-21T05:32:29;18.17;;;10.20;;
76846;SDS011;65813;49.546;8.644;2023-05-21T05:36:29;16.33;;;10.30;;
76846;SDS011;65813;49.546;8.644;2023-05-21T05:40:30;16.75;;;9.93;;
76846;SDS011;65813;49.546;8.644;2023-05-21T05:44:30;17.43;;;10.37;;
76846;SDS011;65813;49.546;8.644;2023-05-21T05:48:31;18.23;;;10.30;;
76846;SDS011;65813;49.546;8.644;2023-05-21T05:52:31;16.40;;;9.77;;
76846;SDS011;65813;49.546;8.644;2023-05-21T05:56:31;18.13;;;11.27;;
76846;SDS011;65813;49.546;8.644;2023-05-21T06:00:32;14.23;;;9.13;;
76846;SDS011;65813;49.546;8.644;2023-05-21T06:04:32;17.05;;;10.27;;
76846;SDS011;65813;49.546;8.644;2023-05-21T06:08:33;14.98;;;9.82;;
76846;SDS011;65813;49.546;8.644;2023-05-21T06:12:33;15.88;;;10.18;;
76846;SDS011;65813;49.546;8.644;2023-05-21T06:16:34;17.73;;;10.10;;
76846;SDS011;65813;49.546;8.644;2023-05-21T06:20:36;16.35;;;9.48;;
76846;SDS011;65813;49.546;8.644;2023-05-21T06:24:36;15.20;;;10.03;;
76846;SDS011;65813;49.546;8.644;2023-05-21T06:28:36;14.83;;;9.73;;
76846;SDS011;65813;49.546;8.644;2023-05-21T06:32:36;15.27;;;9.80;;
76846;SDS011;65813;49.546;8.644;2023-05-21T06:36:37;15.60;;;10.27;;
76846;SDS011;65813;49.546;8.644;2023-05-21T06:40:37;16.67;;;9.43;;
76846;SDS011;65813;49.546;8.644;2023-05-21T06:44:37;13.97;;;8.70;;
76846;SDS011;65813;49.546;8.644;2023-05-21T06:48:38;14.77;;;9.27;;
76846;SDS011;65813;49.546;8.644;2023-05-21T06:52:38;15.18;;;9.88;;
76846;SDS011;65813;49.546;8.644;2023-05-21T06:56:39;12.95;;;8.65;;
76846;SDS011;65813;49.546;8.644;2023-05-21T07:00:39;14.30;;;8.98;;
76846;SDS011;65813;49.546;8.644;2023-05-21T07:04:39;16.00;;;10.03;;
76846;SDS011;65813;49.546;8.644;2023-05-21T07:08:40;13.70;;;8.90;;
76846;SDS011;65813;49.546;8.644;2023-05-21T07:12:40;15.27;;;9.50;;
76846;SDS011;65813;49.546;8.644;2023-05-21T07:16:40;13.97;;;9.00;;
76846;SDS011;65813;49.546;8.644;2023-05-21T07:20:41;15.37;;;8.83;;
76846;SDS011;65813;49.546;8.644;2023-05-21T07:24:41;15.98;;;9.05;;
76846;SDS011;65813;49.546;8.644;2023-05-21T07:28:42;13.55;;;9.13;;
76846;SDS011;65813;49.546;8.644;2023-05-21T07:32:42;15.73;;;9.87;;
76846;SDS011;65813;49.546;8.644;2023-05-21T07:36:42;15.10;;;9.02;;
76846;SDS011;65813;49.546;8.644;2023-05-21T07:40:43;12.93;;;8.50;;
76846;SDS011;65813;49.546;8.644;2023-05-21T07:44:43;15.95;;;9.38;;
76846;SDS011;65813;49.546;8.644;2023-05-21T07:48:43;16.70;;;9.60;;
76846;SDS011;65813;49.546;8.644;2023-05-21T07:52:45;13.93;;;9.35;;
76846;SDS011;65813;49.546;8.644;2023-05-21T07:56:45;14.10;;;9.25;;
76846;SDS011;65813;49.546;8.644;2023-05-21T08:00:46;14.63;;;9.97;;
76846;SDS011;65813;49.546;8.644;2023-05-21T08:04:46;13.63;;;9.20;;
76846;SDS011;65813;49.546;8.644;2023-05-21T08:08:47;12.65;;;8.18;;
76846;SDS011;65813;49.546;8.644;2023-05-21T08:12:47;14.43;;;9.63;;
76846;SDS011;65813;49.546;8.644;2023-05-21T08:16:48;18.43;;;10.87;;
76846;SDS011;65813;49.546;8.644;2023-05-21T08:20:48;15.53;;;10.33;;
76846;SDS011;65813;49.546;8.644;2023-05-21T08:24:49;46.50;;;33.13;;
76846;SDS011;65813;49.546;8.644;2023-05-21T08:28:49;20.00;;;14.03;;
76846;SDS011;65813;49.546;8.644;2023-05-21T08:32:50;15.77;;;9.70;;
76846;SDS011;65813;49.546;8.644;2023-05-21T08:36:50;15.83;;;9.27;;
76846;SDS011;65813;49.546;8.644;2023-05-21T08:40:53;14.20;;;9.38;;
76846;SDS011;65813;49.546;8.644;2023-05-21T08:44:53;15.95;;;9.77;;
76846;SDS011;65813;49.546;8.644;2023-05-21T08:49:00;15.07;;;9.57;;
76846;SDS011;65813;49.546;8.644;2023-05-21T08:53:02;14.10;;;9.25;;
76846;SDS011;65813;49.546;8.644;2023-05-21T08:57:08;13.25;;;9.20;;
76846;SDS011;65813;49.546;8.644;2023-05-21T09:01:25;13.57;;;9.18;;
76846;SDS011;65813;49.546;8.644;2023-05-21T09:05:27;12.77;;;8.77;;
76846;SDS011;65813;49.546;8.644;2023-05-21T09:09:31;13.32;;;9.35;;
76846;SDS011;65813;49.546;8.644;2023-05-21T09:13:39;13.25;;;9.13;;
76846;SDS011;65813;49.546;8.644;2023-05-21T09:17:45;14.43;;;8.85;;
76846;SDS011;65813;49.546;8.644;2023-05-21T09:21:45;14.10;;;8.82;;
76846;SDS011;65813;49.546;8.644;2023-05-21T09:25:46;13.70;;;8.47;;
76846;SDS011;65813;49.546;8.644;2023-05-21T09:29:48;12.43;;;8.10;;
76846;SDS011;65813;49.546;8.644;2023-05-21T09:33:48;12.83;;;8.87;;
76846;SDS011;65813;49.546;8.644;2023-05-21T09:37:49;13.32;;;7.97;;
76846;SDS011;65813;49.546;8.644;2023-05-21T09:41:51;11.88;;;8.48;;
76846;SDS011;65813;49.546;8.644;2023-05-21T09:45:52;12.07;;;8.20;;
76846;SDS011;65813;49.546;8.644;2023-05-21T09:49:56;12.77;;;7.88;;
76846;SDS011;65813;49.546;8.644;2023-05-21T09:53:57;10.90;;;7.88;;
76846;SDS011;65813;49.546;8.644;2023-05-21T09:57:57;10.43;;;7.10;;
76846;SDS011;65813;49.546;8.644;2023-05-21T10:01:58;11.52;;;8.13;;
76846;SDS011;65813;49.546;8.644;2023-05-21T10:05:58;13.57;;;8.25;;
76846;SDS011;65813;49.546;8.644;2023-05-21T10:09:59;11.43;;;8.05;;
76846;SDS011;65813;49.546;8.644;2023-05-21T10:14:06;10.05;;;7.80;;
76846;SDS011;65813;49.546;8.644;2023-05-21T10:18:08;10.30;;;7.25;;
76846;SDS011;65813;49.546;8.644;2023-05-21T10:22:11;10.43;;;7.72;;
76846;SDS011;65813;49.546;8.644;2023-05-21T10:26:12;9.60;;;7.03;;
76846;SDS011;65813;49.546;8.644;2023-05-21T10:30:13;8.68;;;6.63;;
76846;SDS011;65813;49.546;8.644;2023-05-21T10:34:14;10.27;;;7.22;;
76846;SDS011;65813;49.546;8.644;2023-05-21T10:38:15;9.65;;;7.03;;
76846;SDS011;65813;49.546;8.644;2023-05-21T10:42:25;11.10;;;7.95;;
76846;SDS011;65813;49.546;8.644;2023-05-21T10:46:59;11.27;;;6.85;;
76846;SDS011;65813;49.546;8.644;2023-05-21T10:51:33;10.88;;;7.63;;
76846;SDS011;65813;49.546;8.644;2023-05-21T11:00:11;11.00;;;7.40;;
76846;SDS011;65813;49.546;8.644;2023-05-21T11:04:14;10.27;;;7.68;;
76846;SDS011;65813;49.546;8.644;2023-05-21T11:08:29;11.63;;;7.30;;
76846;SDS011;65813;49.546;8.644;2023-05-21T11:16:34;10.50;;;7.43;;
76846;SDS011;65813;49.546;8.644;2023-05-21T11:20:35;10.88;;;7.65;;
76846;SDS011;65813;49.546;8.644;2023-05-21T11:24:39;9.07;;;7.07;;
76846;SDS011;65813;49.546;8.644;2023-05-21T11:28:40;10.35;;;7.35;;
76846;SDS011;65813;49.546;8.644;2023-05-21T11:41:18;10.15;;;6.88;;
76846;SDS011;65813;49.546;8.644;2023-05-21T11:45:19;10.05;;;7.18;;
76846;SDS011;65813;49.546;8.644;2023-05-21T11:49:21;9.02;;;6.70;;
76846;SDS011;65813;49.546;8.644;2023-05-21T11:53:22;10.35;;;6.78;;
76846;SDS011;65813;49.546;8.644;2023-05-21T11:57:26;9.17;;;6.90;;
76846;SDS011;65813;49.546;8.644;2023-05-21T12:01:30;10.13;;;6.45;;
76846;SDS011;65813;49.546;8.644;2023-05-21T12:05:30;7.15;;;5.88;;
76846;SDS011;65813;49.546;8.644;2023-05-21T12:09:30;9.47;;;6.07;;
76846;SDS011;65813;49.546;8.644;2023-05-21T12:13:31;9.30;;;5.80;;
76846;SDS011;65813;49.546;8.644;2023-05-21T12:17:31;8.45;;;6.00;;
76846;SDS011;65813;49.546;8.644;2023-05-21T12:21:32;8.55;;;6.18;;
76846;SDS011;65813;49.546;8.644;2023-05-21T12:25:32;9.68;;;6.00;;
76846;SDS011;65813;49.546;8.644;2023-05-21T12:29:33;7.70;;;5.75;;
76846;SDS011;65813;49.546;8.644;2023-05-21T12:33:35;8.70;;;6.15;;
76846;SDS011;65813;49.546;8.644;2023-05-21T12:37:35;9.70;;;6.50;;
76846;SDS011;65813;49.546;8.644;2023-05-21T12:41:35;9.67;;;6.27;;
76846;SDS011;65813;49.546;8.644;2023-05-21T12:45:36;10.15;;;6.45;;
76846;SDS011;65813;49.546;8.644;2023-05-21T12:49:39;8.35;;;6.15;;
76846;SDS011;65813;49.546;8.644;2023-05-21T12:53:40;8.55;;;5.95;;
76846;SDS011;65813;49.546;8.644;2023-05-21T12:57:42;8.88;;;6.38;;
76846;SDS011;65813;49.546;8.644;2023-05-21T13:01:45;7.15;;;5.60;;
76846;SDS011;65813;49.546;8.644;2023-05-21T13:05:46;11.10;;;6.53;;
76846;SDS011;65813;49.546;8.644;2023-05-21T13:09:47;10.47;;;6.33;;
76846;SDS011;65813;49.546;8.644;2023-05-21T13:13:47;10.55;;;6.50;;
76846;SDS011;65813;49.546;8.644;2023-05-21T13:17:48;8.10;;;6.10;;
76846;SDS011;65813;49.546;8.644;2023-05-21T13:21:48;9.20;;;5.90;;
76846;SDS011;65813;49.546;8.644;2023-05-21T13:25:48;7.77;;;5.13;;
76846;SDS011;65813;49.546;8.644;2023-05-21T13:29:49;7.63;;;5.30;;
76846;SDS011;65813;49.546;8.644;2023-05-21T13:33:49;8.57;;;5.25;;
76846;SDS011;65813;49.546;8.644;2023-05-21T13:37:49;8.77;;;5.17;;
76846;SDS011;65813;49.546;8.644;2023-05-21T13:41:50;7.50;;;5.32;;
76846;SDS011;65813;49.546;8.644;2023-05-21T13:45:50;8.33;;;5.40;;
76846;SDS011;65813;49.546;8.644;2023-05-21T13:49:51;7.13;;;5.45;;
76846;SDS011;65813;49.546;8.644;2023-05-21T13:53:51;9.85;;;5.35;;
76846;SDS011;65813;49.546;8.644;2023-05-21T13:57:52;8.17;;;6.03;;
76846;SDS011;65813;49.546;8.644;2023-05-21T14:01:52;10.93;;;5.73;;
76846;SDS011;65813;49.546;8.644;2023-05-21T14:05:53;7.28;;;5.65;;
76846;SDS011;65813;49.546;8.644;2023-05-21T14:09:54;7.00;;;5.22;;
76846;SDS011;65813;49.546;8.644;2023-05-21T14:13:55;7.32;;;5.07;;
76846;SDS011;65813;49.546;8.644;2023-05-21T14:17:56;7.80;;;4.97;;
76846;SDS011;65813;49.546;8.644;2023-05-21T14:21:56;7.50;;;5.27;;
76846;SDS011;65813;49.546;8.644;2023-05-21T14:25:58;7.35;;;5.03;;
76846;SDS011;65813;49.546;8.644;2023-05-21T14:29:59;8.57;;;5.55;;
76846;SDS011;65813;49.546;8.644;2023-05-21T14:33:59;7.83;;;5.17;;
76846;SDS011;65813;49.546;8.644;2023-05-21T14:38:01;8.32;;;5.53;;
76846;SDS011;65813;49.546;8.644;2023-05-21T14:42:03;7.43;;;5.40;;
76846;SDS011;65813;49.546;8.644;2023-05-21T14:46:03;6.80;;;5.28;;
76846;SDS011;65813;49.546;8.644;2023-05-21T14:50:04;8.00;;;5.55;;
76846;SDS011;65813;49.546;8.644;2023-05-21T14:54:05;8.25;;;5.47;;
76846;SDS011;65813;49.546;8.644;2023-05-21T14:58:06;7.60;;;5.60;;
76846;SDS011;65813;49.546;8.644;2023-05-21T15:02:06;8.82;;;5.90;;
76846;SDS011;65813;49.546;8.644;2023-05-21T15:06:06;7.63;;;5.50;;
76846;SDS011;65813;49.546;8.644;2023-05-21T15:10:07;8.18;;;5.70;;
76846;SDS011;65813;49.546;8.644;2023-05-21T15:14:08;8.38;;;6.13;;
76846;SDS011;65813;49.546;8.644;2023-05-21T15:18:08;9.43;;;5.20;;
76846;SDS011;65813;49.546;8.644;2023-05-21T15:22:08;8.57;;;5.95;;
76846;SDS011;65813;49.546;8.644;2023-05-21T15:26:09;7.63;;;5.90;;
76846;SDS011;65813;49.546;8.644;2023-05-21T15:30:09;8.15;;;6.03;;
76846;SDS011;65813;49.546;8.644;2023-05-21T15:34:10;8.32;;;6.25;;
76846;SDS011;65813;49.546;8.644;2023-05-21T15:38:12;9.43;;;6.55;;
76846;SDS011;65813;49.546;8.644;2023-05-21T15:42:12;8.53;;;6.03;;
76846;SDS011;65813;49.546;8.644;2023-05-21T15:46:13;8.43;;;6.33;;
76846;SDS011;65813;49.546;8.644;2023-05-21T15:50:13;8.57;;;6.10;;
76846;SDS011;65813;49.546;8.644;2023-05-21T15:54:14;8.32;;;5.65;;
76846;SDS011;65813;49.546;8.644;2023-05-21T15:58:14;8.05;;;5.30;;
76846;SDS011;65813;49.546;8.644;2023-05-21T16:02:15;8.48;;;6.05;;
76846;SDS011;65813;49.546;8.644;2023-05-21T16:06:15;10.07;;;5.83;;
76846;SDS011;65813;49.546;8.644;2023-05-21T16:10:15;7.97;;;5.90;;
76846;SDS011;65813;49.546;8.644;2023-05-21T16:14:16;7.97;;;5.68;;
76846;SDS011;65813;49.546;8.644;2023-05-21T16:18:16;9.07;;;5.67;;
76846;SDS011;65813;49.546;8.644;2023-05-21T16:22:17;8.20;;;5.50;;
76846;SDS011;65813;49.546;8.644;2023-05-21T16:26:19;8.55;;;5.90;;
76846;SDS011;65813;49.546;8.644;2023-05-21T16:30:20;9.23;;;5.60;;
76846;SDS011;65813;49.546;8.644;2023-05-21T16:34:20;9.18;;;6.30;;
76846;SDS011;65813;49.546;8.644;2023-05-21T16:38:21;8.97;;;6.00;;
76846;SDS011;65813;49.546;8.644;2023-05-21T16:42:21;7.80;;;5.50;;
76846;SDS011;65813;49.546;8.644;2023-05-21T16:46:22;7.25;;;5.05;;
76846;SDS011;65813;49.546;8.644;2023-05-21T16:50:23;6.78;;;4.72;;
76846;SDS011;65813;49.546;8.644;2023-05-21T16:54:23;6.57;;;4.60;;
76846;SDS011;65813;49.546;8.644;2023-05-21T16:58:24;8.02;;;4.68;;
76846;SDS011;65813;49.546;8.644;2023-05-21T17:02:24;7.82;;;4.97;;
76846;SDS011;65813;49.546;8.644;2023-05-21T17:06:24;6.90;;;4.30;;
76846;SDS011;65813;49.546;8.644;2023-05-21T17:10:25;6.68;;;4.38;;
76846;SDS011;65813;49.546;8.644;2023-05-21T17:14:26;7.43;;;4.60;;
76846;SDS011;65813;49.546;8.644;2023-05-21T17:18:27;7.15;;;4.55;;
76846;SDS011;65813;49.546;8.644;2023-05-21T17:22:27;6.73;;;4.57;;
76846;SDS011;65813;49.546;8.644;2023-05-21T17:26:28;7.00;;;5.13;;
76846;SDS011;65813;49.546;8.644;2023-05-21T17:30:28;7.90;;;4.60;;
76846;SDS011;65813;49.546;8.644;2023-05-21T17:34:28;7.30;;;4.60;;
76846;SDS011;65813;49.546;8.644;2023-05-21T17:38:29;6.35;;;4.80;;
76846;SDS011;65813;49.546;8.644;2023-05-21T17:42:29;7.10;;;4.90;;
76846;SDS011;65813;49.546;8.644;2023-05-21T17:46:30;7.70;;;5.20;;
76846;SDS011;65813;49.546;8.644;2023-05-21T17:50:30;6.23;;;4.70;;
76846;SDS011;65813;49.546;8.644;2023-05-21T17:54:30;8.38;;;4.95;;
76846;SDS011;65813;49.546;8.644;2023-05-21T17:58:31;6.87;;;4.87;;
76846;SDS011;65813;49.546;8.644;2023-05-21T18:02:31;8.30;;;4.85;;
76846;SDS011;65813;49.546;8.644;2023-05-21T18:06:31;8.37;;;5.00;;
76846;SDS011;65813;49.546;8.644;2023-05-21T18:10:32;7.80;;;5.00;;
76846;SDS011;65813;49.546;8.644;2023-05-21T18:14:32;8.70;;;4.97;;
76846;SDS011;65813;49.546;8.644;2023-05-21T18:18:32;7.68;;;5.00;;
76846;SDS011;65813;49.546;8.644;2023-05-21T18:22:33;7.60;;;5.25;;
76846;SDS011;65813;49.546;8.644;2023-05-21T18:26:33;8.32;;;5.63;;
76846;SDS011;65813;49.546;8.644;2023-05-21T18:30:34;8.10;;;5.37;;
76846;SDS011;65813;49.546;8.644;2023-05-21T18:34:34;6.70;;;5.13;;
76846;SDS011;65813;49.546;8.644;2023-05-21T18:38:34;8.53;;;5.70;;
76846;SDS011;65813;49.546;8.644;2023-05-21T18:42:35;8.23;;;5.07;;
76846;SDS011;65813;49.546;8.644;2023-05-21T18:46:35;10.67;;;5.70;;
76846;SDS011;65813;49.546;8.644;2023-05-21T18:50:36;8.27;;;5.72;;
76846;SDS011;65813;49.546;8.644;2023-05-21T18:54:37;9.45;;;6.07;;
76846;SDS011;65813;49.546;8.644;2023-05-21T18:58:37;8.47;;;5.93;;
76846;SDS011;65813;49.546;8.644;2023-05-21T19:02:38;8.40;;;6.10;;
76846;SDS011;65813;49.546;8.644;2023-05-21T19:06:39;8.63;;;5.93;;
76846;SDS011;65813;49.546;8.644;2023-05-21T19:10:39;9.40;;;5.87;;
76846;SDS011;65813;49.546;8.644;2023-05-21T19:14:39;9.88;;;6.63;;
76846;SDS011;65813;49.546;8.644;2023-05-21T19:18:46;10.05;;;6.13;;
76846;SDS011;65813;49.546;8.644;2023-05-21T19:22:46;8.63;;;5.82;;
76846;SDS011;65813;49.546;8.644;2023-05-21T19:26:47;9.33;;;6.17;;
76846;SDS011;65813;49.546;8.644;2023-05-21T19:30:47;8.37;;;5.60;;
76846;SDS011;65813;49.546;8.644;2023-05-21T19:34:48;9.82;;;6.25;;
76846;SDS011;65813;49.546;8.644;2023-05-21T19:38:49;10.30;;;6.13;;
76846;SDS011;65813;49.546;8.644;2023-05-21T19:42:49;8.20;;;5.90;;
76846;SDS011;65813;49.546;8.644;2023-05-21T19:46:50;10.53;;;6.23;;
76846;SDS011;65813;49.546;8.644;2023-05-21T19:50:50;9.27;;;6.53;;
76846;SDS011;65813;49.546;8.644;2023-05-21T19:54:51;8.73;;;6.27;;
76846;SDS011;65813;49.546;8.644;2023-05-21T19:58:51;9.23;;;7.00;;
76846;SDS011;65813;49.546;8.644;2023-05-21T20:02:51;8.00;;;6.00;;
76846;SDS011;65813;49.546;8.644;2023-05-21T20:06:54;8.90;;;5.83;;
76846;SDS011;65813;49.546;8.644;2023-05-21T20:10:55;9.00;;;6.30;;
76846;SDS011;65813;49.546;8.644;2023-05-21T20:14:55;12.17;;;7.00;;
76846;SDS011;65813;49.546;8.644;2023-05-21T20:18:56;8.90;;;6.70;;
76846;SDS011;65813;49.546;8.644;2023-05-21T20:22:57;10.30;;;6.68;;
76846;SDS011;65813;49.546;8.644;2023-05-21T20:27:02;9.20;;;6.50;;
76846;SDS011;65813;49.546;8.644;2023-05-21T20:31:02;9.70;;;6.75;;
76846;SDS011;65813;49.546;8.644;2023-05-21T20:35:03;9.63;;;6.70;;
76846;SDS011;65813;49.546;8.644;2023-05-21T20:39:07;9.60;;;6.60;;
76846;SDS011;65813;49.546;8.644;2023-05-21T20:43:08;8.95;;;6.28;;
76846;SDS011;65813;49.546;8.644;2023-05-21T20:47:12;11.27;;;6.82;;
76846;SDS011;65813;49.546;8.644;2023-05-21T20:51:13;9.57;;;6.80;;
76846;SDS011;65813;49.546;8.644;2023-05-21T20:55:13;11.73;;;6.87;;
76846;SDS011;65813;49.546;8.644;2023-05-21T20:59:13;12.37;;;7.50;;
76846;SDS011;65813;49.546;8.644;2023-05-21T21:03:14;9.93;;;6.97;;
76846;SDS011;65813;49.546;8.644;2023-05-21T21:07:16;9.52;;;6.75;;
76846;SDS011;65813;49.546;8.644;2023-05-21T21:11:17;10.77;;;7.03;;
